Time;durP1;ratioP1;P1;durP2;ratioP2;P2;SDS_P1;SDS_P2;PMS_P1;PMS_P2;Temp;Humidity;BMP_temperature;BMP_pressure;BME280_temperature;BME280_humidity;BME280_pressure;Samples;Min_cycle;Max_cycle;Signal;HPM_P1;HPM_P2
2022/12/09 00:01:33;;;;;;;1999.90;999.90;;;-2.10;99.90;;;;;;5043545;28;20450;-67
2022/12/09 00:03:59;;;;;;;1999.90;999.90;;;-2.10;99.90;;;;;;5026184;28;20056;-67
2022/12/09 00:06:27;;;;;;;1999.90;999.90;;;-2.00;99.90;;;;;;5044400;28;20754;-67
2022/12/09 00:08:53;;;;;;;1999.90;999.90;;;-2.10;99.90;;;;;;5026480;28;20075;-67
2022/12/09 00:11:20;;;;;;;1999.90;999.90;;;-2.10;99.90;;;;;;5041399;28;20047;-67
2022/12/09 00:13:54;;;;;;;1999.90;999.90;;;-2.10;99.90;;;;;;5044862;28;20051;-67
2022/12/09 00:16:20;;;;;;;1999.90;999.90;;;-2.10;99.90;;;;;;5025419;28;20043;-67
2022/12/09 00:18:47;;;;;;;1999.90;999.90;;;-2.10;99.90;;;;;;5027857;28;20075;-67
2022/12/09 00:21:13;;;;;;;1999.90;999.90;;;-2.20;99.90;;;;;;5027409;28;20182;-67
2022/12/09 00:23:40;;;;;;;1999.90;999.90;;;-2.20;99.90;;;;;;5048930;28;20048;-67
2022/12/09 00:26:05;;;;;;;1999.90;999.90;;;-2.30;99.90;;;;;;5047067;28;20040;-67
2022/12/09 00:28:31;;;;;;;1999.90;999.90;;;-2.30;99.90;;;;;;5034204;28;20040;-67
2022/12/09 00:31:01;;;;;;;1999.90;999.90;;;-2.30;99.90;;;;;;5044180;28;20387;-68
2022/12/09 00:33:29;;;;;;;1999.90;999.90;;;-2.30;99.90;;;;;;5031547;28;20423;-67
2022/12/09 00:35:55;;;;;;;1999.90;999.90;;;-2.30;99.90;;;;;;5044459;28;20045;-67
2022/12/09 00:38:20;;;;;;;1999.90;999.90;;;-2.30;99.90;;;;;;5045173;28;20043;-67
2022/12/09 00:40:46;;;;;;;1999.90;999.90;;;-2.30;99.90;;;;;;5044901;28;20044;-67
2022/12/09 00:43:11;;;;;;;1999.90;999.90;;;-2.30;99.90;;;;;;5045285;28;20048;-67
2022/12/09 00:45:37;;;;;;;1999.90;999.90;;;-2.30;99.90;;;;;;5033452;28;20060;-67
2022/12/09 00:48:03;;;;;;;1999.90;999.90;;;-2.30;99.90;;;;;;5046518;28;20492;-67
2022/12/09 00:50:28;;;;;;;1999.90;999.90;;;-2.40;99.90;;;;;;5042806;28;20040;-67
2022/12/09 00:52:54;;;;;;;1999.90;999.90;;;-2.40;99.90;;;;;;5046565;28;20037;-67
2022/12/09 00:55:19;;;;;;;1999.90;999.90;;;-2.50;99.90;;;;;;5049249;28;20495;-67
2022/12/09 00:57:45;;;;;;;1999.90;999.90;;;-2.50;99.90;;;;;;5047823;28;20041;-67
2022/12/09 01:00:11;;;;;;;1999.90;999.90;;;-2.60;99.90;;;;;;5049848;28;20071;-67
2022/12/09 01:02:36;;;;;;;1999.90;999.90;;;-2.60;99.90;;;;;;5062520;28;20049;-67
2022/12/09 01:05:03;;;;;;;1999.90;999.90;;;-2.70;99.90;;;;;;5046128;28;20047;-67
2022/12/09 01:07:28;;;;;;;1999.90;999.90;;;-2.80;99.90;;;;;;5042404;28;20047;-67
2022/12/09 01:09:54;;;;;;;1999.90;999.90;;;-2.80;99.90;;;;;;5049457;28;20494;-67
2022/12/09 01:12:19;;;;;;;1999.90;999.90;;;-2.80;99.90;;;;;;5028569;28;20054;-67
2022/12/09 01:14:45;;;;;;;1999.90;999.90;;;-2.90;99.90;;;;;;5033023;28;20048;-68
2022/12/09 01:17:11;;;;;;;1999.90;999.90;;;-2.90;99.90;;;;;;5044892;28;20052;-67
2022/12/09 01:19:38;;;;;;;1999.90;999.90;;;-2.90;99.90;;;;;;5047639;28;20097;-67
2022/12/09 01:22:03;;;;;;;1999.90;999.90;;;-2.90;99.90;;;;;;5044571;28;20044;-67
2022/12/09 01:24:29;;;;;;;1999.90;999.90;;;-2.80;99.90;;;;;;5030955;28;20119;-68
2022/12/09 01:26:55;;;;;;;1999.90;999.90;;;-2.80;99.90;;;;;;5049133;28;20358;-68
2022/12/09 01:29:20;;;;;;;1999.90;999.90;;;-2.80;99.90;;;;;;5031791;28;21131;-68
2022/12/09 01:31:46;;;;;;;1999.90;999.90;;;-2.70;99.90;;;;;;5030952;28;20041;-68
2022/12/09 01:34:12;;;;;;;1999.90;999.90;;;-2.70;99.90;;;;;;5026982;28;20675;-68
2022/12/09 01:36:37;;;;;;;1999.90;999.90;;;-2.70;99.90;;;;;;5057510;28;20040;-68
2022/12/09 01:39:04;;;;;;;1999.90;999.90;;;-2.60;99.90;;;;;;5038439;28;20044;-68
2022/12/09 01:41:29;;;;;;;1999.90;999.90;;;-2.60;99.90;;;;;;5030617;28;20046;-68
2022/12/09 01:44:10;;;;;;;1999.90;999.90;;;-2.60;99.90;;;;;;5031453;28;20123;-68
2022/12/09 01:46:35;;;;;;;1999.90;999.90;;;-2.60;99.90;;;;;;5027722;28;20576;-68
2022/12/09 01:49:01;;;;;;;1999.90;999.90;;;-2.50;99.90;;;;;;5045502;28;20139;-68
2022/12/09 01:51:27;;;;;;;1999.90;999.90;;;-2.40;99.90;;;;;;5044591;28;20044;-68
2022/12/09 01:53:53;;;;;;;1999.90;999.90;;;-2.40;99.90;;;;;;5047209;28;20072;-68
2022/12/09 01:56:27;;;;;;;1999.90;999.90;;;-2.40;99.90;;;;;;5030172;28;20452;-68
2022/12/09 01:58:53;;;;;;;1999.90;999.90;;;-2.50;99.90;;;;;;5046163;28;20093;-68
2022/12/09 02:01:20;;;;;;;1999.90;999.90;;;-2.40;99.90;;;;;;5063721;28;20390;-68
2022/12/09 02:03:46;;;;;;;1999.90;999.90;;;-2.40;99.90;;;;;;5044910;28;20076;-68
2022/12/09 02:06:13;;;;;;;1999.90;999.90;;;-2.30;99.90;;;;;;5047301;28;20524;-68
2022/12/09 02:08:39;;;;;;;1999.90;999.90;;;-2.30;99.90;;;;;;5031179;28;20512;-68
2022/12/09 02:11:37;;;;;;;1999.90;999.90;;;-2.20;99.90;;;;;;5042039;28;20094;-68
2022/12/09 02:14:49;;;;;;;1999.90;999.90;;;-2.20;99.90;;;;;;5002021;28;20083;-68
2022/12/09 02:17:20;;;;;;;1999.90;999.90;;;-2.10;99.90;;;;;;4969944;28;20041;-68
2022/12/09 02:20:00;;;;;;;1999.90;999.90;;;-2.00;99.90;;;;;;5004202;28;20033;-68
2022/12/09 02:22:31;;;;;;;1999.90;999.90;;;-1.90;99.90;;;;;;5009235;28;20048;-68
2022/12/09 02:25:11;;;;;;;1999.90;999.90;;;-2.00;99.90;;;;;;5047296;28;20093;-68
2022/12/09 02:27:48;;;;;;;1999.90;999.90;;;-1.90;99.90;;;;;;5064567;28;20048;-68
2022/12/09 02:30:23;;;;;;;1999.90;999.90;;;-2.00;99.90;;;;;;5028694;28;20053;-68
2022/12/09 02:32:55;;;;;;;1999.90;999.90;;;-2.00;99.90;;;;;;5061365;28;20437;-68
2022/12/09 02:35:49;;;;;;;1999.90;999.90;;;-2.10;99.90;;;;;;5044971;28;20063;-68
2022/12/09 02:38:30;;;;;;;1999.90;999.90;;;-2.10;99.90;;;;;;5044282;28;20051;-68
2022/12/09 02:41:32;;;;;;;1999.90;999.90;;;-2.10;99.90;;;;;;5046808;28;20040;-68
2022/12/09 02:44:09;;;;;;;1999.90;999.90;;;-2.20;99.90;;;;;;4973291;28;20055;-66
2022/12/09 02:46:36;;;;;;;1999.90;999.90;;;-2.20;99.90;;;;;;4948517;28;20055;-66
2022/12/09 02:49:02;;;;;;;1999.90;999.90;;;-2.20;99.90;;;;;;4958182;28;20038;-66
2022/12/09 02:51:32;;;;;;;1999.90;999.90;;;-2.10;99.90;;;;;;4955180;28;20061;-67
2022/12/09 02:54:03;;;;;;;1999.90;999.90;;;-2.10;99.90;;;;;;4964146;28;20064;-66
2022/12/09 02:56:30;;;;;;;1999.90;999.90;;;-2.10;99.90;;;;;;4956235;28;20284;-66
2022/12/09 02:58:56;;;;;;;1999.90;999.90;;;-2.10;99.90;;;;;;4943052;28;20482;-66
2022/12/09 03:01:31;;;;;;;1999.90;999.90;;;-2.10;99.90;;;;;;4948064;28;20042;-66
2022/12/09 03:03:56;;;;;;;1999.90;999.90;;;-2.10;99.90;;;;;;4960380;28;20062;-66
2022/12/09 03:06:27;;;;;;;1999.90;999.90;;;-2.00;99.90;;;;;;4947303;28;20053;-66
2022/12/09 03:09:01;;;;;;;1999.90;999.90;;;-2.10;99.90;;;;;;4953292;28;20413;-66
2022/12/09 03:11:28;;;;;;;1999.90;999.90;;;-2.10;99.90;;;;;;4955991;28;20062;-66
2022/12/09 03:14:04;;;;;;;1999.90;999.90;;;-2.10;99.90;;;;;;4958686;28;20570;-67
2022/12/09 03:16:37;;;;;;;1999.90;999.90;;;-2.20;99.90;;;;;;4956733;28;20133;-66
2022/12/09 03:19:30;;;;;;;1999.90;999.90;;;-2.20;99.90;;;;;;5058450;28;20410;-67
2022/12/09 03:21:59;;;;;;;1999.90;999.90;;;-2.30;99.90;;;;;;5046718;28;20367;-67
2022/12/09 03:24:31;;;;;;;1999.90;999.90;;;-2.30;99.90;;;;;;5042526;28;20526;-67
2022/12/09 03:26:59;;;;;;;1999.90;999.90;;;-2.20;99.90;;;;;;5045704;28;20067;-67
2022/12/09 03:29:27;;;;;;;1999.90;999.90;;;-2.20;99.90;;;;;;5025246;28;20507;-67
2022/12/09 03:31:55;;;;;;;1999.90;999.90;;;-2.20;99.90;;;;;;5028725;28;20044;-67
2022/12/09 03:34:24;;;;;;;1999.90;999.90;;;-2.20;99.90;;;;;;5043488;28;20040;-67
2022/12/09 03:36:52;;;;;;;1999.90;999.90;;;-2.10;99.90;;;;;;5044395;28;20455;-67
2022/12/09 03:39:23;;;;;;;1999.90;999.90;;;-2.10;99.90;;;;;;5044072;28;20127;-67
2022/12/09 03:41:56;;;;;;;1999.90;999.90;;;-2.20;99.90;;;;;;5046195;28;20040;-67
2022/12/09 03:44:35;;;;;;;1999.90;999.90;;;-2.20;99.90;;;;;;5046049;28;20047;-67
2022/12/09 03:47:03;;;;;;;1999.90;999.90;;;-2.20;99.90;;;;;;5030550;28;20448;-67
2022/12/09 03:49:29;;;;;;;1999.90;999.90;;;-2.10;99.90;;;;;;5047200;28;20410;-67
2022/12/09 03:52:15;;;;;;;1999.90;999.90;;;-2.00;99.90;;;;;;5040871;28;20037;-67
2022/12/09 03:54:46;;;;;;;1999.90;999.90;;;-2.00;99.90;;;;;;5029654;28;20135;-67
2022/12/09 03:57:15;;;;;;;1999.90;999.90;;;-2.00;99.90;;;;;;5043878;28;20130;-67
2022/12/09 03:59:43;;;;;;;1999.90;999.90;;;-1.90;99.90;;;;;;5028277;28;20029;-67
2022/12/09 04:02:09;;;;;;;1999.90;999.90;;;-1.90;99.90;;;;;;5043554;28;20084;-67
2022/12/09 04:04:39;;;;;;;1999.90;999.90;;;-1.80;99.90;;;;;;5044027;28;20044;-67
2022/12/09 04:07:05;;;;;;;1999.90;999.90;;;-1.80;99.90;;;;;;5043642;28;20485;-67
2022/12/09 04:09:31;;;;;;;1999.90;999.90;;;-1.70;99.90;;;;;;5030279;28;20462;-67
2022/12/09 04:11:56;;;;;;;1999.90;999.90;;;-1.70;99.90;;;;;;5046050;28;20040;-67
2022/12/09 04:14:22;;;;;;;1999.90;999.90;;;-1.60;99.90;;;;;;5042423;28;20045;-67
2022/12/09 04:16:47;;;;;;;1999.90;999.90;;;-1.60;99.90;;;;;;5045968;28;20067;-67
2022/12/09 04:19:13;;;;;;;1999.90;999.90;;;-1.60;99.90;;;;;;5045089;28;20052;-66
2022/12/09 04:21:39;;;;;;;1999.90;999.90;;;-1.60;99.90;;;;;;5045195;28;20044;-66
2022/12/09 04:24:05;;;;;;;1999.90;999.90;;;-1.70;99.90;;;;;;5041914;28;20064;-66
2022/12/09 04:26:31;;;;;;;1999.90;999.90;;;-1.70;99.90;;;;;;5028998;28;20865;-66
2022/12/09 04:28:57;;;;;;;1999.90;999.90;;;-1.70;99.90;;;;;;5044282;28;20112;-66
2022/12/09 04:31:22;;;;;;;1999.90;999.90;;;-1.70;99.90;;;;;;5026721;28;20037;-66
2022/12/09 04:33:48;;;;;;;1999.90;999.90;;;-1.70;99.90;;;;;;5041301;28;20405;-66
2022/12/09 04:36:16;;;;;;;1999.90;999.90;;;-1.70;99.90;;;;;;5062013;28;20047;-66
2022/12/09 04:38:42;;;;;;;1999.90;999.90;;;-1.70;99.90;;;;;;5043908;28;20040;-66
2022/12/09 04:41:08;;;;;;;1999.90;999.90;;;-1.70;99.90;;;;;;5077389;28;20087;-66
2022/12/09 04:43:34;;;;;;;1999.90;999.90;;;-1.80;99.90;;;;;;5028206;28;20055;-66
2022/12/09 04:46:05;;;;;;;1999.90;999.90;;;-1.80;99.90;;;;;;5029157;28;20035;-66
2022/12/09 04:48:31;;;;;;;1999.90;999.90;;;-1.90;99.90;;;;;;5026946;28;20505;-66
2022/12/09 04:50:58;;;;;;;1999.90;999.90;;;-2.00;99.90;;;;;;5043048;28;20491;-66
2022/12/09 04:53:24;;;;;;;1999.90;999.90;;;-2.00;99.90;;;;;;5043106;28;20074;-66
2022/12/09 04:56:02;;;;;;;1999.90;999.90;;;-2.10;99.90;;;;;;5044415;28;20037;-66
2022/12/09 04:58:28;;;;;;;1999.90;999.90;;;-2.10;99.90;;;;;;5027782;28;20043;-66
2022/12/09 05:00:54;;;;;;;1999.90;999.90;;;-2.10;99.90;;;;;;5027547;28;20055;-66
2022/12/09 05:03:19;;;;;;;1999.90;999.90;;;-2.00;99.90;;;;;;5042736;28;20503;-66
2022/12/09 05:05:45;;;;;;;1999.90;999.90;;;-2.00;99.90;;;;;;5042414;28;20913;-66
2022/12/09 05:08:11;;;;;;;1999.90;999.90;;;-2.00;99.90;;;;;;5027815;28;20047;-66
2022/12/09 05:10:37;;;;;;;1999.90;999.90;;;-2.00;99.90;;;;;;5031837;28;20044;-66
2022/12/09 05:13:02;;;;;;;1999.90;999.90;;;-2.10;99.90;;;;;;5031541;28;20421;-66
2022/12/09 05:15:28;;;;;;;1999.90;999.90;;;-2.20;99.90;;;;;;5027511;28;20037;-66
2022/12/09 05:17:54;;;;;;;1999.90;999.90;;;-2.20;99.90;;;;;;5047199;28;20600;-66
2022/12/09 05:20:19;;;;;;;1999.90;999.90;;;-2.20;99.90;;;;;;5029064;28;20047;-66
2022/12/09 05:22:45;;;;;;;1999.90;999.90;;;-2.20;99.90;;;;;;5047041;28;20047;-66
2022/12/09 05:25:10;;;;;;;1999.90;999.90;;;-2.20;99.90;;;;;;5047996;28;20047;-66
2022/12/09 05:27:36;;;;;;;1999.90;999.90;;;-2.20;99.90;;;;;;5028709;28;20126;-66
2022/12/09 05:30:02;;;;;;;1999.90;999.90;;;-2.30;99.90;;;;;;5047922;28;20455;-66
2022/12/09 05:32:29;;;;;;;1999.90;999.90;;;-2.30;99.90;;;;;;5045515;28;20101;-66
2022/12/09 05:34:55;;;;;;;1999.90;999.90;;;-2.20;99.90;;;;;;5045265;28;20048;-66
2022/12/09 05:37:20;;;;;;;1999.90;999.90;;;-2.10;99.90;;;;;;5046199;28;20505;-66
2022/12/09 05:39:46;;;;;;;1999.90;999.90;;;-2.00;99.90;;;;;;5082311;28;20033;-66
2022/12/09 05:42:11;;;;;;;1999.90;999.90;;;-2.00;99.90;;;;;;5046825;28;20040;-66
2022/12/09 05:44:37;;;;;;;1999.90;999.90;;;-2.00;99.90;;;;;;5031099;28;20047;-66
2022/12/09 05:47:03;;;;;;;1999.90;999.90;;;-2.00;99.90;;;;;;5029716;28;20386;-66
2022/12/09 05:49:28;;;;;;;1999.90;999.90;;;-2.10;99.90;;;;;;5048038;28;20044;-66
2022/12/09 05:51:54;;;;;;;1999.90;999.90;;;-2.10;99.90;;;;;;5046561;28;20033;-66
2022/12/09 05:54:20;;;;;;;1999.90;999.90;;;-2.10;99.90;;;;;;5048138;28;20040;-66
2022/12/09 05:56:45;;;;;;;1999.90;999.90;;;-2.10;99.90;;;;;;5043482;28;20431;-66
2022/12/09 05:59:11;;;;;;;1999.90;999.90;;;-2.10;99.90;;;;;;5030417;28;20095;-66
2022/12/09 06:01:36;;;;;;;1999.90;999.90;;;-2.10;99.90;;;;;;5041657;28;20128;-67
2022/12/09 06:04:02;;;;;;;1999.90;999.90;;;-2.10;99.90;;;;;;5029620;28;20068;-67
2022/12/09 06:06:30;;;;;;;1999.90;999.90;;;-2.10;99.90;;;;;;5045866;28;20409;-67
2022/12/09 06:09:00;;;;;;;1999.90;999.90;;;-2.10;99.90;;;;;;5048456;28;20433;-67
2022/12/09 06:11:26;;;;;;;1999.90;999.90;;;-2.10;99.90;;;;;;5046581;28;20120;-67
2022/12/09 06:13:52;;;;;;;1999.90;999.90;;;-2.10;99.90;;;;;;5047128;28;20082;-67
2022/12/09 06:16:20;;;;;;;1999.90;999.90;;;-2.10;99.90;;;;;;5043832;28;20038;-67
2022/12/09 06:18:47;;;;;;;1999.90;999.90;;;-2.10;99.90;;;;;;5027724;28;20029;-66
2022/12/09 06:21:15;;;;;;;1999.90;999.90;;;-2.10;99.90;;;;;;5045927;28;20128;-66
2022/12/09 06:23:41;;;;;;;1999.90;999.90;;;-2.10;99.90;;;;;;5044096;28;20132;-66
2022/12/09 06:26:13;;;;;;;1999.90;999.90;;;-2.10;99.90;;;;;;5047359;28;20447;-66
2022/12/09 06:28:39;;;;;;;1999.90;999.90;;;-2.10;99.90;;;;;;5045353;28;20047;-66
2022/12/09 06:31:04;;;;;;;1999.90;999.90;;;-2.20;99.90;;;;;;5029288;28;20036;-66
2022/12/09 06:33:30;;;;;;;1999.90;999.90;;;-2.20;99.90;;;;;;5043287;28;20044;-66
2022/12/09 06:36:00;;;;;;;1999.90;999.90;;;-2.20;99.90;;;;;;5046224;28;20067;-66
2022/12/09 06:38:25;;;;;;;1999.90;999.90;;;-2.10;99.90;;;;;;5028539;28;20090;-66
2022/12/09 06:40:51;;;;;;;1999.90;999.90;;;-2.10;99.90;;;;;;5047346;28;20454;-66
2022/12/09 06:43:16;;;;;;;1999.90;999.90;;;-2.10;99.90;;;;;;5043765;28;20033;-66
2022/12/09 06:45:42;;;;;;;1999.90;999.90;;;-2.20;99.90;;;;;;5047185;28;20044;-66
2022/12/09 06:48:08;;;;;;;1999.90;999.90;;;-2.30;99.90;;;;;;5024105;28;20048;-66
2022/12/09 06:50:33;;;;;;;1999.90;999.90;;;-2.30;99.90;;;;;;5030233;28;20036;-66
2022/12/09 06:52:59;;;;;;;1999.90;999.90;;;-2.20;99.90;;;;;;5039019;28;20036;-66
2022/12/09 06:55:24;;;;;;;1999.90;999.90;;;-2.30;99.90;;;;;;5044270;28;20064;-66
2022/12/09 06:57:50;;;;;;;1999.90;999.90;;;-2.20;99.90;;;;;;5062788;28;20075;-66
2022/12/09 07:00:16;;;;;;;1999.90;999.90;;;-2.20;99.90;;;;;;5045452;28;20039;-66
2022/12/09 07:02:41;;;;;;;1999.90;999.90;;;-2.30;99.90;;;;;;5017559;28;20488;-66
2022/12/09 07:05:08;;;;;;;1999.90;999.90;;;-2.20;99.90;;;;;;5029486;28;20052;-66
2022/12/09 07:07:33;;;;;;;1999.90;999.90;;;-2.20;99.90;;;;;;5021738;28;20433;-66
2022/12/09 07:10:03;;;;;;;1999.90;999.90;;;-2.10;99.90;;;;;;5018598;28;20038;-66
2022/12/09 07:12:28;;;;;;;1999.90;999.90;;;-2.20;99.90;;;;;;5022016;28;20048;-66
2022/12/09 07:14:54;;;;;;;1999.90;999.90;;;-2.20;99.90;;;;;;5004881;28;20041;-65
2022/12/09 07:17:20;;;;;;;1999.90;999.90;;;-2.10;99.90;;;;;;5022297;28;20029;-65
2022/12/09 07:19:46;;;;;;;1999.90;999.90;;;-2.20;99.90;;;;;;5026563;28;20090;-65
2022/12/09 07:22:12;;;;;;;1999.90;999.90;;;-2.10;99.90;;;;;;5011044;28;20423;-65
2022/12/09 07:24:38;;;;;;;1999.90;999.90;;;-2.10;99.90;;;;;;5007804;28;20033;-65
2022/12/09 07:27:06;;;;;;;1999.90;999.90;;;-2.10;99.90;;;;;;5042596;28;20051;-65
2022/12/09 07:29:33;;;;;;;1999.90;999.90;;;-2.00;99.90;;;;;;5013938;28;20048;-66
2022/12/09 07:31:59;;;;;;;1999.90;999.90;;;-1.90;99.90;;;;;;5007322;28;20053;-66
2022/12/09 07:34:24;;;;;;;1999.90;999.90;;;-1.90;99.90;;;;;;5029471;28;20413;-66
2022/12/09 07:36:50;;;;;;;1999.90;999.90;;;-1.80;99.90;;;;;;5024536;28;20075;-66
2022/12/09 07:39:17;;;;;;;1999.90;999.90;;;-1.80;99.90;;;;;;5011978;28;20099;-66
2022/12/09 07:41:42;;;;;;;1999.90;999.90;;;-1.80;99.90;;;;;;5015094;28;20143;-66
2022/12/09 07:44:09;;;;;;;1999.90;999.90;;;-1.80;99.90;;;;;;5011143;28;20168;-66
2022/12/09 07:46:36;;;;;;;1999.90;999.90;;;-1.80;99.90;;;;;;5010459;28;20048;-66
2022/12/09 07:49:03;;;;;;;1999.90;999.90;;;-1.70;99.90;;;;;;5008683;28;20040;-66
2022/12/09 07:51:30;;;;;;;1999.90;999.90;;;-1.70;99.90;;;;;;5060843;28;20041;-66
2022/12/09 07:53:56;;;;;;;1999.90;999.90;;;-1.70;99.90;;;;;;5025430;28;20083;-66
2022/12/09 07:56:22;;;;;;;1999.90;999.90;;;-1.60;99.90;;;;;;5010285;28;20119;-66
2022/12/09 07:58:52;;;;;;;1999.90;999.90;;;-1.60;99.90;;;;;;5023388;28;20464;-66
2022/12/09 08:01:19;;;;;;;1999.90;999.90;;;-1.60;99.90;;;;;;5026300;28;20383;-66
2022/12/09 08:03:47;;;;;;;1999.90;999.90;;;-1.60;99.90;;;;;;5018035;28;20099;-66
2022/12/09 08:06:18;;;;;;;1999.90;999.90;;;-1.50;99.90;;;;;;5046616;28;20054;-66
2022/12/09 08:08:44;;;;;;;1999.90;999.90;;;-1.50;99.90;;;;;;5037982;28;20041;-66
2022/12/09 08:11:13;;;;;;;1999.90;999.90;;;-1.40;99.90;;;;;;5044665;28;20111;-66
2022/12/09 08:13:40;;;;;;;1999.90;999.90;;;-1.40;99.90;;;;;;5058608;28;20037;-66
2022/12/09 08:16:08;;;;;;;1999.90;999.90;;;-1.30;99.90;;;;;;5034661;28;20044;-66
2022/12/09 08:18:35;;;;;;;1999.90;999.90;;;-1.30;99.90;;;;;;5041518;28;20067;-66
2022/12/09 08:21:06;;;;;;;1999.90;999.90;;;-1.10;99.90;;;;;;5019057;28;20059;-66
2022/12/09 08:23:33;;;;;;;1999.90;999.90;;;-1.00;99.90;;;;;;5031265;28;20095;-66
2022/12/09 08:25:59;;;;;;;1999.90;999.90;;;-0.80;99.90;;;;;;5044539;28;20087;-66
2022/12/09 08:28:25;;;;;;;1999.90;999.90;;;-0.70;99.90;;;;;;5019881;28;20037;-66
2022/12/09 08:30:51;;;;;;;1999.90;999.90;;;-0.70;99.90;;;;;;5041856;28;20048;-66
2022/12/09 08:33:17;;;;;;;1999.90;999.90;;;-0.60;99.90;;;;;;5027787;28;20048;-66
2022/12/09 08:35:43;;;;;;;1999.90;999.90;;;-0.60;99.90;;;;;;5042607;28;20047;-66
2022/12/09 08:38:09;;;;;;;1999.90;999.90;;;-0.40;99.90;;;;;;5044207;28;20048;-66
2022/12/09 08:40:35;;;;;;;1999.90;999.90;;;-0.30;99.90;;;;;;5061884;28;20033;-66
2022/12/09 08:43:07;;;;;;;1999.90;999.90;;;-0.20;99.90;;;;;;5039510;28;20059;-66
2022/12/09 08:45:36;;;;;;;1999.90;999.90;;;-0.10;99.90;;;;;;5044844;28;20464;-66
2022/12/09 08:48:01;;;;;;;1999.90;999.90;;;-0.10;99.90;;;;;;5048346;28;20047;-66
2022/12/09 08:50:27;;;;;;;1999.90;999.90;;;0.00;99.90;;;;;;5045058;28;20417;-66
2022/12/09 08:52:52;;;;;;;1999.90;999.90;;;0.00;99.90;;;;;;5047942;28;20410;-66
2022/12/09 08:55:18;;;;;;;1999.90;999.90;;;0.00;99.90;;;;;;5037038;28;20044;-66
2022/12/09 08:57:44;;;;;;;1999.90;999.90;;;0.10;99.90;;;;;;5042093;28;20521;-66
2022/12/09 09:00:10;;;;;;;1999.90;999.90;;;0.10;99.90;;;;;;5030647;28;20037;-66
2022/12/09 09:02:35;;;;;;;1999.90;999.90;;;0.20;99.90;;;;;;5060497;28;20056;-66
2022/12/09 09:05:01;;;;;;;1999.90;999.90;;;0.20;99.90;;;;;;5038844;28;21117;-66
2022/12/09 09:07:27;;;;;;;1999.90;999.90;;;0.30;99.90;;;;;;5041683;28;20040;-66
2022/12/09 09:09:52;;;;;;;1999.90;999.90;;;0.30;99.90;;;;;;5062741;28;20489;-66
2022/12/09 09:12:18;;;;;;;1999.90;999.90;;;0.40;99.90;;;;;;5015729;28;20131;-66
2022/12/09 09:14:43;;;;;;;1999.90;999.90;;;0.40;99.90;;;;;;5045152;28;20370;-66
2022/12/09 09:17:09;;;;;;;1999.90;999.90;;;0.40;99.90;;;;;;5047935;28;20115;-66
2022/12/09 09:19:34;;;;;;;1999.90;999.90;;;0.50;99.90;;;;;;5046571;28;20041;-66
2022/12/09 09:22:00;;;;;;;1999.90;999.90;;;0.50;99.90;;;;;;5047485;28;20543;-66
2022/12/09 09:24:25;;;;;;;1999.90;999.90;;;0.50;99.90;;;;;;5046846;28;20086;-66
2022/12/09 09:26:52;;;;;;;1999.90;999.90;;;0.50;99.90;;;;;;5026214;28;20406;-66
2022/12/09 09:29:20;;;;;;;1999.90;999.90;;;0.50;99.90;;;;;;5014109;28;20153;-66
2022/12/09 09:31:47;;;;;;;1999.90;999.90;;;0.50;99.90;;;;;;5044384;28;20573;-66
2022/12/09 09:34:15;;;;;;;1999.90;999.90;;;0.50;99.90;;;;;;5038932;28;20052;-66
2022/12/09 09:36:42;;;;;;;1999.90;999.90;;;0.40;99.90;;;;;;5015899;28;20433;-66
2022/12/09 09:39:07;;;;;;;1999.90;999.90;;;0.40;99.90;;;;;;5041691;28;20041;-66
2022/12/09 09:41:39;;;;;;;1999.90;999.90;;;0.40;99.90;;;;;;5032748;28;20367;-66
2022/12/09 09:44:31;;;;;;;1999.90;999.90;;;0.40;99.90;;;;;;5047629;28;20497;-66
2022/12/09 09:46:58;;;;;;;1999.90;999.90;;;0.40;99.90;;;;;;5031739;28;20131;-66
2022/12/09 09:49:56;;;;;;;1999.90;999.90;;;0.30;99.90;;;;;;5033744;28;20052;-66
2022/12/09 09:52:27;;;;;;;1999.90;999.90;;;0.30;99.90;;;;;;5001236;28;20151;-66
2022/12/09 09:54:52;;;;;;;1999.90;999.90;;;0.30;99.90;;;;;;5042244;28;20408;-66
2022/12/09 09:57:47;;;;;;;1999.90;999.90;;;0.40;99.90;;;;;;5047438;28;20048;-67
2022/12/09 10:00:34;;;;;;;1999.90;999.90;;;0.40;99.90;;;;;;5030552;28;20048;-67
2022/12/09 10:03:41;;;;;;;1999.90;999.90;;;0.40;99.90;;;;;;5037055;28;20056;-67
2022/12/09 10:06:45;;;;;;;1999.90;999.90;;;0.40;99.90;;;;;;4979985;28;20135;-67
2022/12/09 10:09:16;;;;;;;1999.90;999.90;;;0.40;99.90;;;;;;5033004;28;20079;-68
2022/12/09 10:11:51;;;;;;;1999.90;999.90;;;0.40;99.90;;;;;;5039474;28;20037;-68
2022/12/09 10:14:21;;;;;;;1999.90;999.90;;;0.50;99.90;;;;;;5035567;28;20047;-68
2022/12/09 10:17:00;;;;;;;1999.90;999.90;;;0.50;99.90;;;;;;5042566;28;20040;-68
2022/12/09 10:19:39;;;;;;;1999.90;999.90;;;0.50;99.90;;;;;;5016103;28;20047;-68
2022/12/09 10:22:13;;;;;;;1999.90;999.90;;;0.60;99.90;;;;;;5044407;28;20399;-68
2022/12/09 10:24:46;;;;;;;1999.90;999.90;;;0.70;99.90;;;;;;5042803;28;20079;-68
2022/12/09 10:27:37;;;;;;;1999.90;999.90;;;0.70;99.90;;;;;;5043172;28;20040;-68
2022/12/09 10:30:11;;;;;;;1999.90;999.90;;;0.80;99.90;;;;;;5048591;28;20136;-68
2022/12/09 10:32:39;;;;;;;1999.90;999.90;;;0.80;99.90;;;;;;5045589;28;20433;-68
2022/12/09 10:35:27;;;;;;;1999.90;999.90;;;0.80;99.90;;;;;;5039656;28;20048;-68
2022/12/09 10:37:55;;;;;;;1999.90;999.90;;;0.90;99.90;;;;;;5037051;28;20506;-68
2022/12/09 10:40:20;;;;;;;1999.90;999.90;;;0.90;99.90;;;;;;5031680;28;20694;-68
2022/12/09 10:45:46;;;;;;;1999.90;999.90;;;1.00;99.90;;;;;;5040607;28;20048;-68
2022/12/09 10:48:41;;;;;;;;;;;1.00;99.90;;;;;;5028306;28;20164;-68
2022/12/09 10:51:11;;;;;;;1999.90;999.90;;;0.90;99.90;;;;;;4964471;28;20019;-68
2022/12/09 10:53:52;;;;;;;1999.90;999.90;;;0.90;99.90;;;;;;4951275;28;20042;-68
2022/12/09 10:56:38;;;;;;;1999.90;999.90;;;0.90;99.90;;;;;;4962078;28;20094;-68
2022/12/09 10:59:25;;;;;;;1999.90;999.90;;;0.90;99.90;;;;;;4949411;28;20375;-68
2022/12/09 11:01:53;;;;;;;1999.90;999.90;;;0.90;99.90;;;;;;4948534;28;20420;-68
2022/12/09 11:04:39;;;;;;;1999.90;999.90;;;0.90;99.90;;;;;;4979965;28;20460;-68
2022/12/09 11:07:16;;;;;;;1999.90;999.90;;;0.90;99.90;;;;;;4963632;28;20053;-68
2022/12/09 11:09:44;;;;;;;1999.90;999.90;;;0.90;99.90;;;;;;4953519;28;20374;-68
2022/12/09 11:12:16;;;;;;;1999.90;999.90;;;1.00;99.90;;;;;;4965229;28;20130;-68
2022/12/09 11:14:57;;;;;;;1999.90;999.90;;;1.00;99.90;;;;;;4947031;28;20050;-68
2022/12/09 11:17:32;;;;;;;1999.90;999.90;;;1.10;99.90;;;;;;4947527;28;20508;-68
2022/12/09 11:20:04;;;;;;;1999.90;999.90;;;1.10;99.90;;;;;;4979858;28;20049;-68
2022/12/09 11:22:42;;;;;;;1999.90;999.90;;;1.20;99.90;;;;;;4965640;28;20070;-68
2022/12/09 11:25:10;;;;;;;1999.90;999.90;;;1.20;99.90;;;;;;4947859;28;20044;-68
2022/12/09 11:27:51;;;;;;;1999.90;999.90;;;1.20;99.90;;;;;;4992523;28;20448;-68
2022/12/09 11:30:21;;;;;;;1999.90;999.90;;;1.20;99.90;;;;;;5037781;28;20409;-68
2022/12/09 11:32:55;;;;;;;1999.90;999.90;;;1.20;99.90;;;;;;5038702;28;20099;-68
2022/12/09 11:35:36;;;;;;;1999.90;999.90;;;1.10;99.90;;;;;;5033508;28;20048;-68
2022/12/09 11:38:34;;;;;;;1999.90;999.90;;;1.10;99.90;;;;;;5038215;28;20040;-68
2022/12/09 11:44:29;;;;;;;1999.90;999.90;;;1.10;99.90;;;;;;5036171;28;20048;-68
2022/12/09 11:47:24;;;;;;;1999.90;999.90;;;1.00;99.90;;;;;;5038701;28;20134;-68
2022/12/09 11:49:53;;;;;;;1999.90;999.90;;;1.00;99.90;;;;;;5041760;28;20075;-68
2022/12/09 11:52:23;;;;;;;1999.90;999.90;;;1.00;99.90;;;;;;5033398;28;20091;-68
2022/12/09 11:54:56;;;;;;;1999.90;999.90;;;1.00;99.90;;;;;;5038195;28;20045;-68
2022/12/09 11:57:34;;;;;;;1999.90;999.90;;;1.00;99.90;;;;;;5031503;28;20059;-68
2022/12/09 12:00:05;;;;;;;1999.90;999.90;;;1.00;99.90;;;;;;5029558;28;20466;-67
2022/12/09 12:02:43;;;;;;;1999.90;999.90;;;1.00;99.90;;;;;;5038561;28;20080;-68
2022/12/09 12:05:15;;;;;;;1999.90;999.90;;;1.00;99.90;;;;;;5011456;28;20048;-68
2022/12/09 12:07:49;;;;;;;1999.90;999.90;;;1.00;99.90;;;;;;5032358;28;20044;-65
2022/12/09 12:10:30;;;;;;;1999.90;999.90;;;0.90;99.90;;;;;;5025696;28;20145;-65
2022/12/09 12:13:04;;;;;;;1999.90;999.90;;;1.00;99.90;;;;;;5028027;28;20079;-65
2022/12/09 12:15:32;;;;;;;1999.90;999.90;;;1.00;99.90;;;;;;5028489;28;20119;-65
2022/12/09 12:18:02;;;;;;;1999.90;999.90;;;1.10;99.90;;;;;;5069809;28;20034;-65
2022/12/09 12:21:12;;;;;;;1999.90;999.90;;;1.00;99.90;;;;;;5033620;28;20473;-66